Terminal Aerodrome Forecast
Issued by NWS

Home | Current Version | Previous Version | Text Only | Print | Product List | Glossary On
Versions: 1 2 3 4 5 6 7 8 9 10 11 12 13 14 15
000
FTPQ31 PGUM 242327
TAFGUM
TAF

TAF
PKWA 242327Z 2500/2524 13015G22KT P6SM VCSH FEW015 SCT025 BKN120
     FM250600 15010KT P6SM VCSH FEW017 SCT030 BKN150=

USA.gov is the U.S. government's official web portal to all federal, state and local government web resources and services.